Time;durP1;ratioP1;P1;durP2;ratioP2;P2;SDS_P1;SDS_P2;PMS_P1;PMS_P2;Temp;Humidity;BMP_temperature;BMP_pressure;BME280_temperature;BME280_humidity;BME280_pressure;Samples;Min_cycle;Max_cycle;Signal;HPM_P1;HPM_P2
2023/04/10 05:08:14;;;;;;;1.95;1.75;;;;;;;;;;5045939;28;20156;-45
2023/04/10 05:10:40;;;;;;;2.90;2.00;;;;;;;;;;5059543;28;20081;-45
2023/04/10 05:13:06;;;;;;;2.95;2.03;;;;;;;;;;5069674;28;20143;-43
2023/04/10 05:15:32;;;;;;;3.88;2.38;;;;;;;;;;5069048;28;20535;-44
2023/04/10 05:17:58;;;;;;;3.13;2.20;;;;;;;;;;5069498;28;20151;-45
2023/04/10 05:20:25;;;;;;;4.22;2.90;;;;;;;;;;5069829;28;20080;-43
2023/04/10 05:22:51;;;;;;;2.58;2.30;;;;;;;;;;5069286;28;20069;-44
2023/04/10 05:25:18;;;;;;;3.28;2.35;;;;;;;;;;5069083;28;20069;-43
2023/04/10 05:27:44;;;;;;;3.17;2.15;;;;;;;;;;5069189;28;20100;-44
2023/04/10 05:30:10;;;;;;;5.93;2.50;;;;;;;;;;5068524;28;20076;-44
2023/04/10 05:32:37;;;;;;;6.22;3.40;;;;;;;;;;5078271;28;20686;-44
2023/04/10 05:35:03;;;;;;;4.43;2.70;;;;;;;;;;5089882;28;20133;-45
2023/04/10 05:37:29;;;;;;;5.82;3.15;;;;;;;;;;5083417;28;20088;-45
2023/04/10 05:39:55;;;;;;;3.53;2.55;;;;;;;;;;5069416;28;20089;-44
2023/04/10 05:42:21;;;;;;;2.72;2.15;;;;;;;;;;5069375;28;20080;-43
2023/04/10 05:44:47;;;;;;;3.13;2.70;;;;;;;;;;5069072;28;20073;-44
2023/04/10 05:47:13;;;;;;;2.05;1.55;;;;;;;;;;5068824;28;20076;-44
2023/04/10 05:49:39;;;;;;;2.85;1.88;;;;;;;;;;5069122;28;20467;-44
2023/04/10 05:52:05;;;;;;;2.53;1.73;;;;;;;;;;5068755;28;20087;-44
2023/04/10 05:54:31;;;;;;;2.63;1.95;;;;;;;;;;5069204;28;20110;-48
2023/04/10 05:56:57;;;;;;;2.30;1.75;;;;;;;;;;5069033;28;20072;-44
2023/04/10 05:59:23;;;;;;;1.92;1.50;;;;;;;;;;5068548;28;20065;-45
2023/04/10 06:01:49;;;;;;;1.77;1.50;;;;;;;;;;5068571;28;20081;-43
2023/04/10 06:04:15;;;;;;;2.25;1.88;;;;;;;;;;5068690;28;20069;-45
2023/04/10 06:06:41;;;;;;;1.88;1.42;;;;;;;;;;5068842;28;20099;-46
2023/04/10 06:09:08;;;;;;;1.70;1.42;;;;;;;;;;5068966;28;20077;-43
2023/04/10 06:11:34;;;;;;;1.85;1.55;;;;;;;;;;5068882;28;20099;-46
2023/04/10 06:14:01;;;;;;;1.48;1.33;;;;;;;;;;5068885;28;20143;-44
2023/04/10 06:16:27;;;;;;;1.80;1.65;;;;;;;;;;5068432;28;20073;-45
2023/04/10 06:18:53;;;;;;;1.60;1.45;;;;;;;;;;5068588;28;20168;-45
2023/04/10 06:21:19;;;;;;;1.85;1.30;;;;;;;;;;5068475;28;20583;-44
2023/04/10 06:23:46;;;;;;;2.55;1.60;;;;;;;;;;5068565;28;20154;-43
2023/04/10 06:26:12;;;;;;;3.53;1.52;;;;;;;;;;5068323;28;20081;-44
2023/04/10 06:28:38;;;;;;;2.13;1.65;;;;;;;;;;5067584;28;20081;-43
2023/04/10 06:31:07;;;;;;;2.00;1.67;;;;;;;;;;5067711;28;20087;-44
2023/04/10 06:33:36;;;;;;;1.80;1.45;;;;;;;;;;5068385;28;20072;-46
2023/04/10 06:36:03;;;;;;;1.52;1.30;;;;;;;;;;5068282;28;20069;-43
2023/04/10 06:38:29;;;;;;;2.00;1.50;;;;;;;;;;5064960;28;20088;-43
2023/04/10 06:40:55;;;;;;;1.88;1.40;;;;;;;;;;5066880;28;20184;-46
2023/04/10 06:43:21;;;;;;;3.05;1.77;;;;;;;;;;5067916;28;20077;-46
2023/04/10 06:45:48;;;;;;;2.20;1.40;;;;;;;;;;5069472;28;20443;-44
2023/04/10 06:48:14;;;;;;;2.15;1.63;;;;;;;;;;5064475;28;20077;-44
2023/04/10 06:50:40;;;;;;;2.30;1.83;;;;;;;;;;5064839;28;20674;-45
2023/04/10 06:53:06;;;;;;;1.85;1.52;;;;;;;;;;5067879;28;20085;-44
2023/04/10 06:55:32;;;;;;;2.00;1.65;;;;;;;;;;5066014;28;20134;-43
2023/04/10 06:57:58;;;;;;;2.97;1.58;;;;;;;;;;5067679;28;20151;-45
2023/04/10 07:00:24;;;;;;;1.55;1.45;;;;;;;;;;5068318;28;20607;-45
2023/04/10 07:02:50;;;;;;;1.55;1.35;;;;;;;;;;5067777;28;20077;-45
2023/04/10 07:05:16;;;;;;;1.52;1.10;;;;;;;;;;5068970;28;20077;-44
2023/04/10 07:07:42;;;;;;;1.50;1.40;;;;;;;;;;5068639;28;20451;-47
2023/04/10 07:10:09;;;;;;;1.35;1.23;;;;;;;;;;5054968;28;20168;-44
2023/04/10 07:12:35;;;;;;;1.25;1.15;;;;;;;;;;5047441;28;20749;-46
2023/04/10 07:15:01;;;;;;;1.40;1.20;;;;;;;;;;5046490;28;20128;-45
2023/04/10 07:17:28;;;;;;;2.55;1.27;;;;;;;;;;5061958;28;20077;-45
2023/04/10 07:19:54;;;;;;;1.80;1.38;;;;;;;;;;5065939;28;20567;-45
2023/04/10 07:22:20;;;;;;;1.30;1.10;;;;;;;;;;5065284;28;20077;-46
2023/04/10 07:24:47;;;;;;;1.30;1.20;;;;;;;;;;5065841;28;20080;-47
2023/04/10 07:27:14;;;;;;;1.38;1.10;;;;;;;;;;5065493;28;20647;-47
2023/04/10 07:29:40;;;;;;;1.48;1.10;;;;;;;;;;5065696;28;20084;-44
2023/04/10 07:32:06;;;;;;;1.20;1.10;;;;;;;;;;5065643;28;20077;-44
2023/04/10 07:34:33;;;;;;;1.20;1.10;;;;;;;;;;5065585;28;20096;-44
2023/04/10 07:36:59;;;;;;;1.10;0.93;;;;;;;;;;5065610;28;20065;-45
2023/04/10 07:39:25;;;;;;;1.08;0.98;;;;;;;;;;5067442;28;20077;-44
2023/04/10 07:44:27;;;;;;;0.93;0.75;;;;;;;;;;5755339;23;19989;-45
2023/04/10 07:46:54;;;;;;;1.25;0.88;;;;;;;;;;5010520;28;20078;-46
2023/04/10 07:49:22;;;;;;;1.00;0.90;;;;;;;;;;5007312;28;20082;-45
2023/04/10 07:51:48;;;;;;;0.60;0.60;;;;;;;;;;5009958;28;20086;-49
2023/04/10 07:54:14;;;;;;;0.70;0.70;;;;;;;;;;5011092;28;20086;-48
2023/04/10 07:56:40;;;;;;;0.90;0.82;;;;;;;;;;5011408;28;20429;-45
2023/04/10 07:59:06;;;;;;;0.82;0.82;;;;;;;;;;5005147;28;20082;-45
2023/04/10 08:01:33;;;;;;;0.93;0.88;;;;;;;;;;5015791;28;20078;-47
2023/04/10 08:03:59;;;;;;;0.65;0.65;;;;;;;;;;5026770;28;20078;-47
2023/04/10 08:06:25;;;;;;;1.02;0.90;;;;;;;;;;5030458;28;20082;-47
2023/04/10 08:08:51;;;;;;;0.75;0.70;;;;;;;;;;5012946;28;20599;-46
2023/04/10 08:11:31;;;;;;;1.15;0.80;;;;;;;;;;5010581;28;20510;-46
2023/04/10 08:14:00;;;;;;;0.77;0.60;;;;;;;;;;5010381;28;20176;-46
2023/04/10 08:16:27;;;;;;;0.98;0.88;;;;;;;;;;5006006;28;20081;-46
2023/04/10 08:18:54;;;;;;;0.77;0.77;;;;;;;;;;5008834;28;20509;-49
2023/04/10 08:21:24;;;;;;;0.50;0.50;;;;;;;;;;5008758;28;20169;-47
2023/04/10 08:23:51;;;;;;;0.50;0.50;;;;;;;;;;5020001;28;20431;-46
2023/04/10 08:26:18;;;;;;;0.60;0.60;;;;;;;;;;5009664;28;20070;-45
2023/04/10 08:28:46;;;;;;;0.60;0.60;;;;;;;;;;5010540;28;20169;-50
2023/04/10 08:31:13;;;;;;;0.60;0.60;;;;;;;;;;5009247;28;20085;-47
2023/04/10 08:33:39;;;;;;;1.10;1.00;;;;;;;;;;5009987;28;20149;-47
2023/04/10 08:36:05;;;;;;;1.05;0.77;;;;;;;;;;5003934;28;20071;-48
2023/04/10 08:38:31;;;;;;;0.60;0.60;;;;;;;;;;5006938;28;20568;-45
2023/04/10 08:40:58;;;;;;;0.45;0.45;;;;;;;;;;4991083;28;20075;-46
2023/04/10 08:43:25;;;;;;;0.50;0.50;;;;;;;;;;5014283;28;20074;-48
2023/04/10 08:45:51;;;;;;;0.60;0.60;;;;;;;;;;5008430;28;20096;-48
2023/04/10 08:48:20;;;;;;;0.40;0.40;;;;;;;;;;5008023;28;20079;-47
2023/04/10 08:50:47;;;;;;;0.50;0.50;;;;;;;;;;5007450;28;20090;-47
2023/04/10 08:53:15;;;;;;;0.50;0.50;;;;;;;;;;5009700;28;20178;-47
2023/04/10 08:55:41;;;;;;;0.77;0.60;;;;;;;;;;5009095;28;20073;-49
2023/04/10 08:58:09;;;;;;;0.50;0.50;;;;;;;;;;5000489;28;20209;-47
2023/04/10 09:00:38;;;;;;;0.57;0.52;;;;;;;;;;4989968;28;20447;-47
2023/04/10 09:03:07;;;;;;;0.40;0.40;;;;;;;;;;5005504;28;20533;-48
2023/04/10 09:05:35;;;;;;;0.50;0.50;;;;;;;;;;5008422;28;20560;-48
2023/04/10 09:08:01;;;;;;;0.40;0.40;;;;;;;;;;5007147;28;20101;-47
2023/04/10 09:10:28;;;;;;;0.63;0.63;;;;;;;;;;5009500;28;20148;-48
2023/04/10 09:12:54;;;;;;;0.60;0.60;;;;;;;;;;5007880;28;20611;-48
2023/04/10 09:15:20;;;;;;;0.40;0.40;;;;;;;;;;5008471;28;20136;-46
2023/04/10 09:18:12;;;;;;;0.88;0.60;;;;;;;;;;5007897;28;20657;-46
2023/04/10 09:20:38;;;;;;;0.47;0.47;;;;;;;;;;5006084;28;20094;-46
2023/04/10 09:23:19;;;;;;;0.40;0.40;;;;;;;;;;5008543;28;20113;-49
2023/04/10 09:25:45;;;;;;;0.60;0.60;;;;;;;;;;5008095;28;20085;-46
2023/04/10 09:28:11;;;;;;;0.50;0.50;;;;;;;;;;5007784;28;20086;-47
2023/04/10 09:30:41;;;;;;;0.40;0.40;;;;;;;;;;5008259;28;20128;-47
2023/04/10 09:33:26;;;;;;;0.40;0.40;;;;;;;;;;5007955;28;20169;-47
2023/04/10 09:35:52;;;;;;;0.45;0.45;;;;;;;;;;5007619;28;20128;-47
2023/04/10 09:38:19;;;;;;;0.50;0.50;;;;;;;;;;5006716;28;20083;-45
2023/04/10 09:40:46;;;;;;;0.30;0.30;;;;;;;;;;5006500;28;20089;-48
2023/04/10 09:43:18;;;;;;;0.50;0.50;;;;;;;;;;5006296;28;20105;-49
2023/04/10 09:45:52;;;;;;;0.32;0.32;;;;;;;;;;5006198;28;20441;-49
2023/04/10 09:48:18;;;;;;;0.50;0.50;;;;;;;;;;5006346;28;20078;-49
2023/04/10 09:50:44;;;;;;;0.38;0.38;;;;;;;;;;5014094;28;20074;-46
2023/04/10 09:53:20;;;;;;;0.30;0.30;;;;;;;;;;5026280;28;20594;-47
2023/04/10 09:55:50;;;;;;;0.38;0.38;;;;;;;;;;5017123;28;20466;-49
2023/04/10 09:58:17;;;;;;;0.50;0.50;;;;;;;;;;5005797;28;20070;-48
2023/04/10 10:00:43;;;;;;;;;;;;;;;;;;5006408;28;20075;-46
2023/04/10 10:03:09;;;;;;;;;;;;;;;;;;5006294;28;20064;-47
2023/04/10 10:05:35;;;;;;;;;;;;;;;;;;4995910;28;19914;-47
2023/04/10 10:08:01;;;;;;;;;;;;;;;;;;4986904;28;19906;-46
2023/04/10 10:10:27;;;;;;;;;;;;;;;;;;4998265;28;19940;-47
2023/04/10 10:12:53;;;;;;;;;;;;;;;;;;5005776;28;19996;-45
2023/04/10 10:15:19;;;;;;;;;;;;;;;;;;5006344;28;20000;-49
2023/04/10 10:17:45;;;;;;;;;;;;;;;;;;5017265;28;19912;-46
2023/04/10 10:20:10;;;;;;;;;;;;;;;;;;5026392;28;19909;-46
2023/04/10 10:22:36;;;;;;;;;;;;;;;;;;5010875;28;19945;-47
2023/04/10 10:25:02;;;;;;;;;;;;;;;;;;5006281;28;20003;-48
2023/04/10 10:27:28;;;;;;;;;;;;;;;;;;5005966;28;20441;-46
2023/04/10 10:29:54;;;;;;;;;;;;;;;;;;5006229;28;19905;-45
2023/04/10 10:32:20;;;;;;;;;;;;;;;;;;5006173;28;20384;-49
2023/04/10 10:34:46;;;;;;;;;;;;;;;;;;5005807;28;19920;-46
2023/04/10 10:37:12;;;;;;;;;;;;;;;;;;5006005;28;19916;-46
2023/04/10 10:39:38;;;;;;;;;;;;;;;;;;5006245;28;19955;-45
2023/04/10 10:42:04;;;;;;;;;;;;;;;;;;5005430;28;19905;-46
2023/04/10 10:44:30;;;;;;;;;;;;;;;;;;5006206;28;19921;-49
2023/04/10 10:46:55;;;;;;;;;;;;;;;;;;5006767;28;20521;-46
2023/04/10 10:49:21;;;;;;;;;;;;;;;;;;5005858;28;20418;-49
2023/04/10 10:51:47;;;;;;;;;;;;;;;;;;5006025;28;20045;-46
2023/04/10 10:54:13;;;;;;;;;;;;;;;;;;5005829;28;19920;-46
2023/04/10 10:56:39;;;;;;;;;;;;;;;;;;5005795;28;20644;-47
2023/04/10 10:59:05;;;;;;;;;;;;;;;;;;5005609;28;19913;-46
2023/04/10 11:01:31;;;;;;;;;;;;;;;;;;5001275;28;20384;-47
2023/04/10 11:03:58;;;;;;;;;;;;;;;;;;4991411;28;20303;-46
2023/04/10 11:06:24;;;;;;;;;;;;;;;;;;4999447;28;19964;-49
2023/04/10 11:08:51;;;;;;;;;;;;;;;;;;4989434;28;19914;-48
2023/04/10 11:11:17;;;;;;;;;;;;;;;;;;5006100;28;20447;-46
2023/04/10 11:13:43;;;;;;;;;;;;;;;;;;5007165;28;19913;-47
2023/04/10 11:16:12;;;;;;;;;;;;;;;;;;5007301;28;20299;-45
2023/04/10 11:18:38;;;;;;;;;;;;;;;;;;5011192;28;19936;-48
2023/04/10 11:21:04;;;;;;;;;;;;;;;;;;5010629;28;20406;-48
2023/04/10 11:23:30;;;;;;;;;;;;;;;;;;5010646;28;19917;-45
2023/04/10 11:25:56;;;;;;;;;;;;;;;;;;5010285;28;19997;-46
2023/04/10 11:28:22;;;;;;;;;;;;;;;;;;5009792;28;19979;-47
2023/04/10 11:30:48;;;;;;;;;;;;;;;;;;5009091;28;19913;-46
2023/04/10 11:33:14;;;;;;;;;;;;;;;;;;5006231;28;19945;-47
2023/04/10 11:35:40;;;;;;;;;;;;;;;;;;5010661;28;19913;-47
2023/04/10 11:38:06;;;;;;;;;;;;;;;;;;5009826;28;20402;-49
2023/04/10 11:40:31;;;;;;;;;;;;;;;;;;5008942;28;19964;-48
2023/04/10 11:42:58;;;;;;;;;;;;;;;;;;5009604;28;19933;-47
2023/04/10 11:45:24;;;;;;;;;;;;;;;;;;5008961;28;19914;-47
2023/04/10 11:47:50;;;;;;;;;;;;;;;;;;5008600;28;19917;-47
2023/04/10 11:50:17;;;;;;;;;;;;;;;;;;5009121;28;20398;-46
2023/04/10 11:52:43;;;;;;;;;;;;;;;;;;5008978;28;20298;-46
2023/04/10 11:55:09;;;;;;;;;;;;;;;;;;5021689;28;20000;-47
2023/04/10 11:57:35;;;;;;;;;;;;;;;;;;5010976;28;19911;-46
2023/04/10 12:00:03;;;;;;;;;;;;;;;;;;5028775;28;19909;-48
2023/04/10 12:02:29;;;;;;;;;;;;;;;;;;5012591;28;19916;-49
2023/04/10 12:04:55;;;;;;;;;;;;;;;;;;5008779;28;20012;-49
2023/04/10 12:07:21;;;;;;;;;;;;;;;;;;5008596;28;20342;-49
2023/04/10 12:09:47;;;;;;;;;;;;;;;;;;5008603;28;19915;-45
2023/04/10 12:12:14;;;;;;;;;;;;;;;;;;5007241;28;20017;-47
2023/04/10 12:14:40;;;;;;;;;;;;;;;;;;5008335;28;20323;-49
2023/04/10 12:17:07;;;;;;;;;;;;;;;;;;5009476;28;19971;-49
2023/04/10 12:19:33;;;;;;;;;;;;;;;;;;4998993;28;19906;-46
2023/04/10 12:22:00;;;;;;;;;;;;;;;;;;4988774;28;20071;-46
2023/04/10 12:24:27;;;;;;;;;;;;;;;;;;4988143;28;20011;-48
2023/04/10 12:26:53;;;;;;;;;;;;;;;;;;4988063;28;19906;-50
2023/04/10 12:29:19;;;;;;;;;;;;;;;;;;4988593;28;19905;-46
2023/04/10 12:31:46;;;;;;;;;;;;;;;;;;5014226;28;19978;-49
2023/04/10 12:34:12;;;;;;;;;;;;;;;;;;5019035;28;19917;-46
2023/04/10 12:36:38;;;;;;;;;;;;;;;;;;5008462;28;20264;-48
2023/04/10 12:39:05;;;;;;;;;;;;;;;;;;5007599;28;19917;-46
2023/04/10 12:41:30;;;;;;;;;;;;;;;;;;4997951;28;19913;-50
2023/04/10 12:43:56;;;;;;;;;;;;;;;;;;5008002;28;19919;-49
2023/04/10 12:46:22;;;;;;;;;;;;;;;;;;5008028;28;20395;-49
2023/04/10 12:48:49;;;;;;;;;;;;;;;;;;5007653;28;19925;-49
2023/04/10 12:51:14;;;;;;;;;;;;;;;;;;5007903;28;20348;-48
2023/04/10 12:53:41;;;;;;;;;;;;;;;;;;5008153;28;19920;-48
2023/04/10 12:56:07;;;;;;;;;;;;;;;;;;5008031;28;20379;-47
2023/04/10 12:58:33;;;;;;;;;;;;;;;;;;5007710;28;19909;-47
2023/04/10 13:00:59;;;;;;;;;;;;;;;;;;5007892;28;19911;-50
2023/04/10 13:03:25;;;;;;;;;;;;;;;;;;5001137;28;19940;-49
2023/04/10 13:05:52;;;;;;;;;;;;;;;;;;4987989;28;19917;-47
2023/04/10 13:08:18;;;;;;;;;;;;;;;;;;5005623;28;19913;-46
2023/04/10 13:10:44;;;;;;;;;;;;;;;;;;5007584;28;20269;-49
2023/04/10 13:13:13;;;;;;;;;;;;;;;;;;5007906;28;20668;-48
2023/04/10 13:15:40;;;;;;;;;;;;;;;;;;5002605;28;19909;-50
2023/04/10 13:18:06;;;;;;;;;;;;;;;;;;5007338;28;19912;-49
2023/04/10 13:20:31;;;;;;;;;;;;;;;;;;5007377;28;20295;-47
2023/04/10 13:22:57;;;;;;;;;;;;;;;;;;5007290;28;19909;-48
2023/04/10 13:25:23;;;;;;;;;;;;;;;;;;5013685;28;19983;-46
2023/04/10 13:27:49;;;;;;;;;;;;;;;;;;5007489;28;19909;-45
2023/04/10 13:30:15;;;;;;;;;;;;;;;;;;5007328;28;20318;-45
2023/04/10 13:32:41;;;;;;;;;;;;;;;;;;5007193;28;19905;-45
2023/04/10 13:35:08;;;;;;;;;;;;;;;;;;5003556;28;19924;-48
2023/04/10 13:37:34;;;;;;;;;;;;;;;;;;5006589;28;20371;-47
2023/04/10 13:40:00;;;;;;;;;;;;;;;;;;5013518;28;19917;-48
2023/04/10 13:42:26;;;;;;;;;;;;;;;;;;5006426;28;19915;-47
2023/04/10 13:44:52;;;;;;;;;;;;;;;;;;5006489;28;19964;-48
2023/04/10 13:47:17;;;;;;;;;;;;;;;;;;5005840;28;19917;-48
2023/04/10 13:49:43;;;;;;;;;;;;;;;;;;5002981;28;19932;-48
2023/04/10 13:52:09;;;;;;;;;;;;;;;;;;5007581;28;19979;-48
2023/04/10 13:54:35;;;;;;;;;;;;;;;;;;5006462;28;20006;-45
2023/04/10 13:57:02;;;;;;;;;;;;;;;;;;5006795;28;20427;-47
2023/04/10 13:59:28;;;;;;;;;;;;;;;;;;5006096;28;19914;-48
2023/04/10 14:01:54;;;;;;;;;;;;;;;;;;5006456;28;19913;-47
2023/04/10 14:04:20;;;;;;;;;;;;;;;;;;5006524;28;20010;-46
2023/04/10 14:06:46;;;;;;;;;;;;;;;;;;5006112;28;19905;-47
2023/04/10 14:09:12;;;;;;;;;;;;;;;;;;5005334;28;19917;-46
2023/04/10 14:11:37;;;;;;;;;;;;;;;;;;5007031;28;19909;-50
2023/04/10 14:14:03;;;;;;;;;;;;;;;;;;5005446;28;19914;-46
2023/04/10 14:16:30;;;;;;;;;;;;;;;;;;4991673;28;20529;-46
2023/04/10 14:18:56;;;;;;;;;;;;;;;;;;4996786;28;20542;-46
2023/04/10 14:21:22;;;;;;;;;;;;;;;;;;5006077;28;19983;-45
2023/04/10 14:23:48;;;;;;;;;;;;;;;;;;5006291;28;19909;-47
2023/04/10 14:26:14;;;;;;;;;;;;;;;;;;5025844;28;19905;-49
2023/04/10 14:28:41;;;;;;;;;;;;;;;;;;5026665;28;19917;-47
2023/04/10 14:31:07;;;;;;;;;;;;;;;;;;5026561;28;19959;-48
2023/04/10 14:33:33;;;;;;;;;;;;;;;;;;5025582;28;19913;-49
2023/04/10 14:35:59;;;;;;;;;;;;;;;;;;5010198;28;20392;-47
2023/04/10 14:38:25;;;;;;;;;;;;;;;;;;5026456;28;19987;-47
2023/04/10 14:40:52;;;;;;;;;;;;;;;;;;5004326;28;19909;-46
2023/04/10 14:43:18;;;;;;;;;;;;;;;;;;4997503;28;19920;-47
2023/04/10 14:45:45;;;;;;;;;;;;;;;;;;5012467;28;19913;-47
2023/04/10 14:48:11;;;;;;;;;;;;;;;;;;5004909;28;19954;-46
2023/04/10 14:50:38;;;;;;;;;;;;;;;;;;5006620;28;19940;-47
2023/04/10 14:53:04;;;;;;;;;;;;;;;;;;5005205;28;19952;-44
2023/04/10 14:55:30;;;;;;;;;;;;;;;;;;5006971;28;20470;-44
2023/04/10 14:57:57;;;;;;;;;;;;;;;;;;5004156;28;19913;-46
2023/04/10 15:00:24;;;;;;;;;;;;;;;;;;5009820;28;19913;-43
2023/04/10 15:02:50;;;;;;;;;;;;;;;;;;5005656;28;20690;-45
2023/04/10 15:05:16;;;;;;;;;;;;;;;;;;5007766;28;19909;-46
2023/04/10 15:07:41;;;;;;;;;;;;;;;;;;5007621;28;19932;-42
2023/04/10 15:10:09;;;;;;;;;;;;;;;;;;5003843;28;19936;-44
2023/04/10 15:12:35;;;;;;;;;;;;;;;;;;5008049;28;20433;-46
2023/04/10 15:15:01;;;;;;;;;;;;;;;;;;5007868;28;19921;-44
2023/04/10 15:17:28;;;;;;;;;;;;;;;;;;5007825;28;19905;-43
2023/04/10 15:19:54;;;;;;;;;;;;;;;;;;5008179;28;20391;-47
2023/04/10 15:22:20;;;;;;;;;;;;;;;;;;5000947;28;19949;-45
2023/04/10 15:24:46;;;;;;;;;;;;;;;;;;4994624;28;20004;-45
2023/04/10 15:27:12;;;;;;;;;;;;;;;;;;5006732;28;19968;-45
2023/04/10 15:29:38;;;;;;;;;;;;;;;;;;5007554;28;19920;-44
2023/04/10 15:32:04;;;;;;;;;;;;;;;;;;5006929;28;19909;-44
2023/04/10 15:34:31;;;;;;;;;;;;;;;;;;5007839;28;20368;-45
2023/04/10 15:36:57;;;;;;;;;;;;;;;;;;5007929;28;19905;-45
2023/04/10 15:39:23;;;;;;;;;;;;;;;;;;5007546;28;19920;-43
2023/04/10 15:41:49;;;;;;;;;;;;;;;;;;5008131;28;19987;-43
2023/04/10 15:44:15;;;;;;;;;;;;;;;;;;5007837;28;19913;-44
2023/04/10 15:46:41;;;;;;;;;;;;;;;;;;5006493;28;19913;-44
2023/04/10 15:49:07;;;;;;;;;;;;;;;;;;5008447;28;19911;-44
2023/04/10 15:51:33;;;;;;;;;;;;;;;;;;5007426;28;19913;-45
2023/04/10 15:54:01;;;;;;;;;;;;;;;;;;5008052;28;20466;-44
2023/04/10 15:56:27;;;;;;;;;;;;;;;;;;5007559;28;20356;-45
2023/04/10 15:58:53;;;;;;;;;;;;;;;;;;5005474;28;19913;-44
2023/04/10 16:01:19;;;;;;;;;;;;;;;;;;5009398;28;19913;-46
2023/04/10 16:03:45;;;;;;;;;;;;;;;;;;5010276;28;19973;-44
2023/04/10 16:06:11;;;;;;;;;;;;;;;;;;5007501;28;20016;-43
2023/04/10 16:08:37;;;;;;;;;;;;;;;;;;5009830;28;19910;-44
2023/04/10 16:11:03;;;;;;;;;;;;;;;;;;5008660;28;19932;-43
2023/04/10 16:13:29;;;;;;;;;;;;;;;;;;5009714;28;19913;-44
2023/04/10 16:15:55;;;;;;;;;;;;;;;;;;5009785;28;19975;-45
2023/04/10 16:18:21;;;;;;;;;;;;;;;;;;5009432;28;19909;-43
2023/04/10 16:20:47;;;;;;;;;;;;;;;;;;5009741;28;19913;-43
2023/04/10 16:23:13;;;;;;;;;;;;;;;;;;5007129;28;19948;-42
2023/04/10 16:25:39;;;;;;;;;;;;;;;;;;5009940;28;19913;-42
2023/04/10 16:28:06;;;;;;;;;;;;;;;;;;5009662;28;20471;-42
2023/04/10 16:30:32;;;;;;;;;;;;;;;;;;5006238;28;19910;-44
2023/04/10 16:32:58;;;;;;;;;;;;;;;;;;5008895;28;20380;-42
2023/04/10 16:35:24;;;;;;;;;;;;;;;;;;5009267;28;19913;-44
2023/04/10 16:37:50;;;;;;;;;;;;;;;;;;4997038;28;19910;-43
2023/04/10 16:40:16;;;;;;;;;;;;;;;;;;4989921;28;19914;-43
2023/04/10 16:42:42;;;;;;;;;;;;;;;;;;4989542;28;19906;-42
2023/04/10 16:45:08;;;;;;;;;;;;;;;;;;4995951;28;20667;-42
2023/04/10 16:47:34;;;;;;;;;;;;;;;;;;5008938;28;19909;-43
2023/04/10 16:50:00;;;;;;;;;;;;;;;;;;4998556;28;19956;-45
2023/04/10 16:52:26;;;;;;;;;;;;;;;;;;5006769;28;19909;-42
2023/04/10 16:54:52;;;;;;;;;;;;;;;;;;5009110;28;19913;-44
2023/04/10 16:57:18;;;;;;;;;;;;;;;;;;5008969;28;19944;-45
2023/04/10 16:59:44;;;;;;;;;;;;;;;;;;5006981;28;19913;-45
2023/04/10 17:02:10;;;;;;;;;;;;;;;;;;5007214;28;20012;-45
2023/04/10 17:04:36;;;;;;;;;;;;;;;;;;5009018;28;19905;-42
2023/04/10 17:07:02;;;;;;;;;;;;;;;;;;5008637;28;19963;-44
2023/04/10 17:09:28;;;;;;;;;;;;;;;;;;5007644;28;19905;-43
2023/04/10 17:11:54;;;;;;;;;;;;;;;;;;5006713;28;19913;-43
2023/04/10 17:14:20;;;;;;;;;;;;;;;;;;5007718;28;20048;-42
2023/04/10 17:16:46;;;;;;;;;;;;;;;;;;5007615;28;19909;-44
2023/04/10 17:19:12;;;;;;;;;;;;;;;;;;5013759;28;19909;-43
2023/04/10 17:21:38;;;;;;;;;;;;;;;;;;5009381;28;19979;-45
2023/04/10 17:24:04;;;;;;;;;;;;;;;;;;5006490;28;19914;-44
2023/04/10 17:26:30;;;;;;;;;;;;;;;;;;5005577;28;20307;-43
2023/04/10 17:28:56;;;;;;;;;;;;;;;;;;5005761;28;19981;-44
2023/04/10 17:31:22;;;;;;;;;;;;;;;;;;5005216;28;19979;-44
2023/04/10 17:33:48;;;;;;;;;;;;;;;;;;5005472;28;19951;-44
2023/04/10 17:36:13;;;;;;;;;;;;;;;;;;5004245;28;19914;-43
2023/04/10 17:38:39;;;;;;;;;;;;;;;;;;5005525;28;20321;-43
2023/04/10 17:41:05;;;;;;;;;;;;;;;;;;5004690;28;19916;-42
2023/04/10 17:43:31;;;;;;;;;;;;;;;;;;5005237;28;19917;-47
2023/04/10 17:45:57;;;;;;;;;;;;;;;;;;5005170;28;19920;-44
2023/04/10 17:48:23;;;;;;;;;;;;;;;;;;5004605;28;19963;-44
2023/04/10 17:50:50;;;;;;;;;;;;;;;;;;5005737;28;20451;-43
2023/04/10 17:53:16;;;;;;;;;;;;;;;;;;5002233;28;19916;-45
2023/04/10 17:55:42;;;;;;;;;;;;;;;;;;4993823;28;19909;-43
2023/04/10 17:58:08;;;;;;;;;;;;;;;;;;5004795;28;19910;-44
2023/04/10 18:00:34;;;;;;;;;;;;;;;;;;5006171;28;20257;-43
2023/04/10 18:03:00;;;;;;;;;;;;;;;;;;5003985;28;19921;-47
2023/04/10 18:05:26;;;;;;;;;;;;;;;;;;5003452;28;20370;-44
2023/04/10 18:07:52;;;;;;;;;;;;;;;;;;5004110;28;19991;-44
2023/04/10 18:10:18;;;;;;;;;;;;;;;;;;5004297;28;20024;-45
2023/04/10 18:12:44;;;;;;;;;;;;;;;;;;5004575;28;20296;-43
2023/04/10 18:15:13;;;;;;;;;;;;;;;;;;5005182;28;19921;-43
2023/04/10 18:17:39;;;;;;;;;;;;;;;;;;5005230;28;20478;-44
2023/04/10 18:20:05;;;;;;;;;;;;;;;;;;5004091;28;19913;-42
2023/04/10 18:22:31;;;;;;;;;;;;;;;;;;5003726;28;19909;-46
2023/04/10 18:24:58;;;;;;;;;;;;;;;;;;4997064;28;19917;-44
2023/04/10 18:27:23;;;;;;;;;;;;;;;;;;5002272;28;19909;-43
2023/04/10 18:29:49;;;;;;;;;;;;;;;;;;5004193;28;19924;-44
2023/04/10 18:32:15;;;;;;;;;;;;;;;;;;5007645;28;19968;-43
2023/04/10 18:34:41;;;;;;;;;;;;;;;;;;5004413;28;19924;-43
2023/04/10 18:37:07;;;;;;;;;;;;;;;;;;5004612;28;19949;-43
2023/04/10 18:39:36;;;;;;;;;;;;;;;;;;5003707;28;19963;-46
2023/04/10 18:42:02;;;;;;;;;;;;;;;;;;5004471;28;19968;-42
2023/04/10 18:44:28;;;;;;;;;;;;;;;;;;5002972;28;20376;-44
2023/04/10 18:46:54;;;;;;;;;;;;;;;;;;5002467;28;19909;-45
2023/04/10 18:49:19;;;;;;;;;;;;;;;;;;5004628;28;20245;-44
2023/04/10 18:51:45;;;;;;;;;;;;;;;;;;5004172;28;19910;-44
2023/04/10 18:54:12;;;;;;;;;;;;;;;;;;5002740;28;20020;-43
2023/04/10 18:56:38;;;;;;;;;;;;;;;;;;5004554;28;19910;-42
2023/04/10 18:59:04;;;;;;;;;;;;;;;;;;5002589;28;19913;-44
2023/04/10 19:01:30;;;;;;;;;;;;;;;;;;5004104;28;19917;-42
2023/04/10 19:03:56;;;;;;;;;;;;;;;;;;4996598;28;19917;-44
2023/04/10 19:06:22;;;;;;;;;;;;;;;;;;5002208;28;19936;-44
2023/04/10 19:08:48;;;;;;;;;;;;;;;;;;4998129;28;19910;-43
2023/04/10 19:11:14;;;;;;;;;;;;;;;;;;5004355;28;19913;-42
2023/04/10 19:13:40;;;;;;;;;;;;;;;;;;5003802;28;19917;-44
2023/04/10 19:16:07;;;;;;;;;;;;;;;;;;5005620;28;20521;-44
2023/04/10 19:18:33;;;;;;;;;;;;;;;;;;5004575;28;20253;-42
2023/04/10 19:20:59;;;;;;;;;;;;;;;;;;5002060;28;19956;-43
2023/04/10 19:23:25;;;;;;;;;;;;;;;;;;5004132;28;19917;-45
2023/04/10 19:25:51;;;;;;;;;;;;;;;;;;5003157;28;19909;-44
2023/04/10 19:28:17;;;;;;;;;;;;;;;;;;5003684;28;19940;-44
2023/04/10 19:30:43;;;;;;;;;;;;;;;;;;4996885;28;20372;-43
2023/04/10 19:33:09;;;;;;;;;;;;;;;;;;5003815;28;20002;-44
2023/04/10 19:35:35;;;;;;;;;;;;;;;;;;5005102;28;20380;-42
2023/04/10 19:38:01;;;;;;;;;;;;;;;;;;5008527;28;19913;-43
2023/04/10 19:40:27;;;;;;;;;;;;;;;;;;5009449;28;19909;-42
2023/04/10 19:42:53;;;;;;;;;;;;;;;;;;5006422;28;19936;-44
2023/04/10 19:45:20;;;;;;;;;;;;;;;;;;5006102;28;19920;-43
2023/04/10 19:47:47;;;;;;;;;;;;;;;;;;5007568;28;19931;-43
2023/04/10 19:50:13;;;;;;;;;;;;;;;;;;5008077;28;19905;-43
2023/04/10 19:52:39;;;;;;;;;;;;;;;;;;5008277;28;19909;-45
2023/04/10 19:55:06;;;;;;;;;;;;;;;;;;5008207;28;19996;-42
2023/04/10 19:57:32;;;;;;;;;;;;;;;;;;5007891;28;19909;-45
2023/04/10 19:59:58;;;;;;;;;;;;;;;;;;5006727;28;19916;-41
2023/04/10 20:02:24;;;;;;;;;;;;;;;;;;5007319;28;19905;-42
2023/04/10 20:04:50;;;;;;;;;;;;;;;;;;5007690;28;20084;-43
2023/04/10 20:07:16;;;;;;;;;;;;;;;;;;5007947;28;20008;-43
2023/04/10 20:09:42;;;;;;;;;;;;;;;;;;5010652;28;19909;-43
2023/04/10 20:12:08;;;;;;;;;;;;;;;;;;5005271;28;19913;-42
2023/04/10 20:14:34;;;;;;;;;;;;;;;;;;4987792;28;20296;-42
2023/04/10 20:17:00;;;;;;;;;;;;;;;;;;4988147;28;20230;-41
2023/04/10 20:19:26;;;;;;;;;;;;;;;;;;4987590;28;20430;-43
2023/04/10 20:21:52;;;;;;;;;;;;;;;;;;4988234;28;19917;-42
2023/04/10 20:24:19;;;;;;;;;;;;;;;;;;4987810;28;19964;-41
2023/04/10 20:26:46;;;;;;;;;;;;;;;;;;4987758;28;20660;-41
2023/04/10 20:29:11;;;;;;;;;;;;;;;;;;4988181;28;19905;-44
2023/04/10 20:31:37;;;;;;;;;;;;;;;;;;5007838;28;20291;-43
2023/04/10 20:34:03;;;;;;;;;;;;;;;;;;5007110;28;19971;-44
2023/04/10 20:36:31;;;;;;;;;;;;;;;;;;5005477;28;20043;-44
2023/04/10 20:38:56;;;;;;;;;;;;;;;;;;5007260;28;19960;-44
2023/04/10 20:41:23;;;;;;;;;;;;;;;;;;5006997;28;20347;-45
2023/04/10 20:43:49;;;;;;;;;;;;;;;;;;5005748;28;20513;-41
2023/04/10 20:46:15;;;;;;;;;;;;;;;;;;4994623;28;19913;-43
2023/04/10 20:48:41;;;;;;;;;;;;;;;;;;5007182;28;20372;-41
2023/04/10 20:51:07;;;;;;;;;;;;;;;;;;5007609;28;19944;-43
2023/04/10 20:53:33;;;;;;;;;;;;;;;;;;5006509;28;20011;-42
2023/04/10 20:55:59;;;;;;;;;;;;;;;;;;5007500;28;19906;-42
2023/04/10 20:58:25;;;;;;;;;;;;;;;;;;5006600;28;19972;-43
2023/04/10 21:00:51;;;;;;;;;;;;;;;;;;5007236;28;19948;-43
2023/04/10 21:03:18;;;;;;;;;;;;;;;;;;4993720;28;20307;-42
2023/04/10 21:05:44;;;;;;;;;;;;;;;;;;5004932;28;19912;-43
2023/04/10 21:08:10;;;;;;;;;;;;;;;;;;5007175;28;19961;-41